sensor_id;sensor_type;location;lat;lon;timestamp;P1;durP1;ratioP1;P2;durP2;ratioP2
36233;SDS011;43467;50.890;5.982;2023-05-02T00:02:04;52.40;;;31.95;;
36233;SDS011;43467;50.890;5.982;2023-05-02T00:04:29;45.60;;;29.60;;
36233;SDS011;43467;50.890;5.982;2023-05-02T00:06:55;45.45;;;30.23;;
36233;SDS011;43467;50.890;5.982;2023-05-02T00:09:20;47.50;;;30.15;;
36233;SDS011;43467;50.890;5.982;2023-05-02T00:11:46;50.90;;;32.45;;
36233;SDS011;43467;50.890;5.982;2023-05-02T00:14:12;49.15;;;31.25;;
36233;SDS011;43467;50.890;5.982;2023-05-02T00:16:37;51.38;;;31.77;;
36233;SDS011;43467;50.890;5.982;2023-05-02T00:19:02;56.90;;;34.40;;
36233;SDS011;43467;50.890;5.982;2023-05-02T00:21:28;52.08;;;32.22;;
36233;SDS011;43467;50.890;5.982;2023-05-02T00:23:54;52.60;;;31.63;;
36233;SDS011;43467;50.890;5.982;2023-05-02T00:26:21;52.63;;;33.10;;
36233;SDS011;43467;50.890;5.982;2023-05-02T00:28:47;74.85;;;35.33;;
36233;SDS011;43467;50.890;5.982;2023-05-02T00:31:13;54.88;;;33.20;;
36233;SDS011;43467;50.890;5.982;2023-05-02T00:33:39;60.15;;;34.08;;
36233;SDS011;43467;50.890;5.982;2023-05-02T00:36:10;61.20;;;36.45;;
36233;SDS011;43467;50.890;5.982;2023-05-02T00:38:38;64.10;;;37.25;;
36233;SDS011;43467;50.890;5.982;2023-05-02T00:41:03;66.65;;;38.97;;
36233;SDS011;43467;50.890;5.982;2023-05-02T00:43:29;65.20;;;38.55;;
36233;SDS011;43467;50.890;5.982;2023-05-02T00:45:55;61.97;;;37.95;;
36233;SDS011;43467;50.890;5.982;2023-05-02T00:48:20;67.05;;;39.35;;
36233;SDS011;43467;50.890;5.982;2023-05-02T00:50:47;71.90;;;38.97;;
36233;SDS011;43467;50.890;5.982;2023-05-02T00:53:12;70.50;;;40.05;;
36233;SDS011;43467;50.890;5.982;2023-05-02T00:55:39;72.53;;;40.08;;
36233;SDS011;43467;50.890;5.982;2023-05-02T00:58:05;74.90;;;42.60;;
36233;SDS011;43467;50.890;5.982;2023-05-02T01:00:39;74.00;;;40.67;;
36233;SDS011;43467;50.890;5.982;2023-05-02T01:06:02;76.50;;;42.30;;
36233;SDS011;43467;50.890;5.982;2023-05-02T01:09:21;77.13;;;42.92;;
36233;SDS011;43467;50.890;5.982;2023-05-02T01:14:52;86.70;;;47.05;;
36233;SDS011;43467;50.890;5.982;2023-05-02T01:17:22;77.43;;;44.15;;
36233;SDS011;43467;50.890;5.982;2023-05-02T01:19:51;83.43;;;46.03;;
36233;SDS011;43467;50.890;5.982;2023-05-02T01:22:18;86.32;;;45.33;;
36233;SDS011;43467;50.890;5.982;2023-05-02T01:27:55;93.05;;;48.92;;
36233;SDS011;43467;50.890;5.982;2023-05-02T01:30:29;89.80;;;49.33;;
36233;SDS011;43467;50.890;5.982;2023-05-02T01:32:58;85.68;;;47.47;;
36233;SDS011;43467;50.890;5.982;2023-05-02T01:35:26;88.57;;;48.75;;
36233;SDS011;43467;50.890;5.982;2023-05-02T01:37:54;88.78;;;47.13;;
36233;SDS011;43467;50.890;5.982;2023-05-02T01:40:22;93.72;;;48.63;;
36233;SDS011;43467;50.890;5.982;2023-05-02T01:42:49;96.90;;;49.22;;
36233;SDS011;43467;50.890;5.982;2023-05-02T01:45:17;97.43;;;50.65;;
36233;SDS011;43467;50.890;5.982;2023-05-02T01:47:44;92.63;;;48.85;;
36233;SDS011;43467;50.890;5.982;2023-05-02T01:50:11;89.50;;;48.78;;
36233;SDS011;43467;50.890;5.982;2023-05-02T01:52:41;103.00;;;50.08;;
36233;SDS011;43467;50.890;5.982;2023-05-02T01:55:10;97.82;;;50.85;;
36233;SDS011;43467;50.890;5.982;2023-05-02T01:57:39;99.10;;;51.33;;
36233;SDS011;43467;50.890;5.982;2023-05-02T02:00:08;97.40;;;51.83;;
36233;SDS011;43467;50.890;5.982;2023-05-02T02:02:35;102.50;;;54.15;;
36233;SDS011;43467;50.890;5.982;2023-05-02T02:05:02;97.38;;;53.33;;
36233;SDS011;43467;50.890;5.982;2023-05-02T02:07:30;96.60;;;51.85;;
36233;SDS011;43467;50.890;5.982;2023-05-02T02:09:55;107.35;;;53.30;;
36233;SDS011;43467;50.890;5.982;2023-05-02T02:12:27;102.43;;;53.17;;
36233;SDS011;43467;50.890;5.982;2023-05-02T02:15:02;96.15;;;51.05;;
36233;SDS011;43467;50.890;5.982;2023-05-02T02:17:38;99.50;;;53.25;;
36233;SDS011;43467;50.890;5.982;2023-05-02T02:20:08;104.18;;;52.28;;
36233;SDS011;43467;50.890;5.982;2023-05-02T02:22:39;109.47;;;57.13;;
36233;SDS011;43467;50.890;5.982;2023-05-02T02:25:11;108.70;;;55.95;;
36233;SDS011;43467;50.890;5.982;2023-05-02T02:27:39;113.32;;;57.08;;
36233;SDS011;43467;50.890;5.982;2023-05-02T02:30:05;102.90;;;54.03;;
36233;SDS011;43467;50.890;5.982;2023-05-02T02:32:32;111.88;;;55.85;;
36233;SDS011;43467;50.890;5.982;2023-05-02T02:34:58;110.40;;;57.38;;
36233;SDS011;43467;50.890;5.982;2023-05-02T02:38:10;116.75;;;58.90;;
36233;SDS011;43467;50.890;5.982;2023-05-02T02:40:33;104.63;;;52.65;;
36233;SDS011;43467;50.890;5.982;2023-05-02T02:43:07;112.13;;;56.80;;
36233;SDS011;43467;50.890;5.982;2023-05-02T02:45:56;119.85;;;58.83;;
36233;SDS011;43467;50.890;5.982;2023-05-02T02:48:48;112.65;;;57.33;;
36233;SDS011;43467;50.890;5.982;2023-05-02T02:51:24;126.32;;;61.42;;
36233;SDS011;43467;50.890;5.982;2023-05-02T02:53:59;112.40;;;56.53;;
36233;SDS011;43467;50.890;5.982;2023-05-02T02:56:44;105.43;;;54.88;;
36233;SDS011;43467;50.890;5.982;2023-05-02T02:59:18;118.65;;;61.30;;
36233;SDS011;43467;50.890;5.982;2023-05-02T03:02:08;113.20;;;58.90;;
36233;SDS011;43467;50.890;5.982;2023-05-02T03:04:42;103.13;;;54.15;;
36233;SDS011;43467;50.890;5.982;2023-05-02T03:07:08;121.15;;;61.38;;
36233;SDS011;43467;50.890;5.982;2023-05-02T03:09:41;112.45;;;58.03;;
36233;SDS011;43467;50.890;5.982;2023-05-02T03:12:10;108.90;;;58.13;;
36233;SDS011;43467;50.890;5.982;2023-05-02T03:14:36;132.95;;;63.83;;
36233;SDS011;43467;50.890;5.982;2023-05-02T03:17:03;120.05;;;61.70;;
36233;SDS011;43467;50.890;5.982;2023-05-02T03:19:29;124.57;;;61.53;;
36233;SDS011;43467;50.890;5.982;2023-05-02T03:21:55;116.95;;;57.95;;
36233;SDS011;43467;50.890;5.982;2023-05-02T03:24:21;117.35;;;60.65;;
36233;SDS011;43467;50.890;5.982;2023-05-02T03:26:46;123.45;;;62.63;;
36233;SDS011;43467;50.890;5.982;2023-05-02T03:29:12;107.78;;;57.10;;
36233;SDS011;43467;50.890;5.982;2023-05-02T03:31:38;113.68;;;58.15;;
36233;SDS011;43467;50.890;5.982;2023-05-02T03:34:03;117.82;;;59.33;;
36233;SDS011;43467;50.890;5.982;2023-05-02T03:36:29;117.10;;;60.20;;
36233;SDS011;43467;50.890;5.982;2023-05-02T03:38:55;114.75;;;59.03;;
36233;SDS011;43467;50.890;5.982;2023-05-02T03:41:20;115.57;;;59.25;;
36233;SDS011;43467;50.890;5.982;2023-05-02T03:43:45;116.50;;;59.03;;
36233;SDS011;43467;50.890;5.982;2023-05-02T03:46:11;101.97;;;54.63;;
36233;SDS011;43467;50.890;5.982;2023-05-02T03:48:37;109.18;;;56.05;;
36233;SDS011;43467;50.890;5.982;2023-05-02T03:51:03;111.63;;;55.92;;
36233;SDS011;43467;50.890;5.982;2023-05-02T03:53:29;113.32;;;55.90;;
36233;SDS011;43467;50.890;5.982;2023-05-02T03:55:55;108.38;;;55.17;;
36233;SDS011;43467;50.890;5.982;2023-05-02T03:58:21;101.05;;;52.53;;
36233;SDS011;43467;50.890;5.982;2023-05-02T04:00:47;92.75;;;51.80;;
36233;SDS011;43467;50.890;5.982;2023-05-02T04:03:12;94.28;;;50.40;;
36233;SDS011;43467;50.890;5.982;2023-05-02T04:05:38;94.13;;;48.33;;
36233;SDS011;43467;50.890;5.982;2023-05-02T04:08:04;91.65;;;47.72;;
36233;SDS011;43467;50.890;5.982;2023-05-02T04:10:29;74.88;;;40.47;;
36233;SDS011;43467;50.890;5.982;2023-05-02T04:12:55;75.00;;;42.15;;
36233;SDS011;43467;50.890;5.982;2023-05-02T04:15:20;67.28;;;36.83;;
36233;SDS011;43467;50.890;5.982;2023-05-02T04:17:46;62.80;;;34.35;;
36233;SDS011;43467;50.890;5.982;2023-05-02T04:20:11;61.50;;;33.53;;
36233;SDS011;43467;50.890;5.982;2023-05-02T04:22:37;63.22;;;33.03;;
36233;SDS011;43467;50.890;5.982;2023-05-02T04:25:04;63.03;;;34.78;;
36233;SDS011;43467;50.890;5.982;2023-05-02T04:27:31;58.70;;;32.90;;
36233;SDS011;43467;50.890;5.982;2023-05-02T04:29:56;62.28;;;34.05;;
36233;SDS011;43467;50.890;5.982;2023-05-02T04:32:22;58.78;;;33.03;;
36233;SDS011;43467;50.890;5.982;2023-05-02T04:34:47;60.08;;;33.20;;
36233;SDS011;43467;50.890;5.982;2023-05-02T04:37:13;63.35;;;34.92;;
36233;SDS011;43467;50.890;5.982;2023-05-02T04:39:38;54.55;;;30.73;;
36233;SDS011;43467;50.890;5.982;2023-05-02T04:42:04;51.55;;;27.90;;
36233;SDS011;43467;50.890;5.982;2023-05-02T04:44:29;43.60;;;25.33;;
36233;SDS011;43467;50.890;5.982;2023-05-02T04:46:55;39.38;;;20.50;;
36233;SDS011;43467;50.890;5.982;2023-05-02T04:49:20;33.72;;;18.83;;
36233;SDS011;43467;50.890;5.982;2023-05-02T04:51:46;29.73;;;17.55;;
36233;SDS011;43467;50.890;5.982;2023-05-02T04:54:11;35.05;;;17.60;;
36233;SDS011;43467;50.890;5.982;2023-05-02T04:56:37;31.55;;;17.42;;
36233;SDS011;43467;50.890;5.982;2023-05-02T04:59:02;31.45;;;16.85;;
36233;SDS011;43467;50.890;5.982;2023-05-02T05:01:28;27.20;;;16.75;;
36233;SDS011;43467;50.890;5.982;2023-05-02T05:03:53;25.92;;;15.98;;
36233;SDS011;43467;50.890;5.982;2023-05-02T05:06:19;27.30;;;15.85;;
36233;SDS011;43467;50.890;5.982;2023-05-02T05:08:45;26.63;;;15.65;;
36233;SDS011;43467;50.890;5.982;2023-05-02T05:11:10;27.23;;;15.35;;
36233;SDS011;43467;50.890;5.982;2023-05-02T05:13:36;22.83;;;14.27;;
36233;SDS011;43467;50.890;5.982;2023-05-02T05:16:02;27.67;;;15.13;;
36233;SDS011;43467;50.890;5.982;2023-05-02T05:18:28;29.02;;;15.38;;
36233;SDS011;43467;50.890;5.982;2023-05-02T05:20:54;29.08;;;16.98;;
36233;SDS011;43467;50.890;5.982;2023-05-02T05:23:19;26.05;;;14.35;;
36233;SDS011;43467;50.890;5.982;2023-05-02T05:25:45;25.55;;;15.05;;
36233;SDS011;43467;50.890;5.982;2023-05-02T05:28:11;26.00;;;14.57;;
36233;SDS011;43467;50.890;5.982;2023-05-02T05:30:36;21.85;;;14.88;;
36233;SDS011;43467;50.890;5.982;2023-05-02T05:33:02;24.40;;;13.52;;
36233;SDS011;43467;50.890;5.982;2023-05-02T05:35:27;26.00;;;13.27;;
36233;SDS011;43467;50.890;5.982;2023-05-02T05:37:53;24.08;;;13.38;;
36233;SDS011;43467;50.890;5.982;2023-05-02T05:40:18;25.15;;;13.73;;
36233;SDS011;43467;50.890;5.982;2023-05-02T05:42:45;25.55;;;13.90;;
36233;SDS011;43467;50.890;5.982;2023-05-02T05:45:10;27.77;;;13.82;;
36233;SDS011;43467;50.890;5.982;2023-05-02T05:47:36;23.23;;;14.25;;
36233;SDS011;43467;50.890;5.982;2023-05-02T05:50:01;23.40;;;13.63;;
36233;SDS011;43467;50.890;5.982;2023-05-02T05:52:27;23.85;;;14.00;;
36233;SDS011;43467;50.890;5.982;2023-05-02T05:54:53;22.75;;;13.43;;
36233;SDS011;43467;50.890;5.982;2023-05-02T05:57:19;23.60;;;13.45;;
36233;SDS011;43467;50.890;5.982;2023-05-02T05:59:45;20.77;;;13.32;;
36233;SDS011;43467;50.890;5.982;2023-05-02T06:02:10;22.60;;;14.05;;
36233;SDS011;43467;50.890;5.982;2023-05-02T06:04:36;20.50;;;13.45;;
36233;SDS011;43467;50.890;5.982;2023-05-02T06:07:02;22.95;;;14.00;;
36233;SDS011;43467;50.890;5.982;2023-05-02T06:09:27;25.30;;;13.68;;
36233;SDS011;43467;50.890;5.982;2023-05-02T06:11:52;26.92;;;14.57;;
36233;SDS011;43467;50.890;5.982;2023-05-02T06:14:18;23.40;;;14.32;;
36233;SDS011;43467;50.890;5.982;2023-05-02T06:16:43;25.17;;;15.73;;
36233;SDS011;43467;50.890;5.982;2023-05-02T06:19:09;26.88;;;14.88;;
36233;SDS011;43467;50.890;5.982;2023-05-02T06:21:37;26.58;;;15.98;;
36233;SDS011;43467;50.890;5.982;2023-05-02T06:24:03;33.53;;;16.50;;
36233;SDS011;43467;50.890;5.982;2023-05-02T06:26:29;23.88;;;14.30;;
36233;SDS011;43467;50.890;5.982;2023-05-02T06:28:54;27.88;;;16.73;;
36233;SDS011;43467;50.890;5.982;2023-05-02T06:31:20;26.08;;;15.35;;
36233;SDS011;43467;50.890;5.982;2023-05-02T06:33:45;25.38;;;15.75;;
36233;SDS011;43467;50.890;5.982;2023-05-02T06:36:10;26.17;;;16.73;;
36233;SDS011;43467;50.890;5.982;2023-05-02T06:38:36;31.60;;;16.10;;
36233;SDS011;43467;50.890;5.982;2023-05-02T06:41:01;26.50;;;15.95;;
36233;SDS011;43467;50.890;5.982;2023-05-02T06:43:27;25.80;;;15.85;;
36233;SDS011;43467;50.890;5.982;2023-05-02T06:45:52;24.38;;;15.48;;
36233;SDS011;43467;50.890;5.982;2023-05-02T06:48:19;26.20;;;16.70;;
36233;SDS011;43467;50.890;5.982;2023-05-02T06:50:45;26.25;;;15.63;;
36233;SDS011;43467;50.890;5.982;2023-05-02T06:53:11;27.58;;;15.63;;
36233;SDS011;43467;50.890;5.982;2023-05-02T06:55:36;27.15;;;16.52;;
36233;SDS011;43467;50.890;5.982;2023-05-02T06:58:02;26.83;;;15.75;;
36233;SDS011;43467;50.890;5.982;2023-05-02T07:00:27;24.02;;;15.57;;
36233;SDS011;43467;50.890;5.982;2023-05-02T07:02:53;24.77;;;15.90;;
36233;SDS011;43467;50.890;5.982;2023-05-02T07:05:18;25.33;;;14.60;;
36233;SDS011;43467;50.890;5.982;2023-05-02T07:07:44;27.20;;;15.15;;
36233;SDS011;43467;50.890;5.982;2023-05-02T07:10:09;28.38;;;16.95;;
36233;SDS011;43467;50.890;5.982;2023-05-02T07:12:35;35.05;;;17.27;;
36233;SDS011;43467;50.890;5.982;2023-05-02T07:15:03;24.08;;;13.10;;
36233;SDS011;43467;50.890;5.982;2023-05-02T07:17:29;21.00;;;11.52;;
36233;SDS011;43467;50.890;5.982;2023-05-02T07:19:56;19.40;;;11.35;;
36233;SDS011;43467;50.890;5.982;2023-05-02T07:22:21;16.85;;;10.38;;
36233;SDS011;43467;50.890;5.982;2023-05-02T07:24:46;14.50;;;8.48;;
36233;SDS011;43467;50.890;5.982;2023-05-02T07:27:12;20.00;;;8.75;;
36233;SDS011;43467;50.890;5.982;2023-05-02T07:29:37;18.20;;;8.10;;
36233;SDS011;43467;50.890;5.982;2023-05-02T07:32:04;17.13;;;7.30;;
36233;SDS011;43467;50.890;5.982;2023-05-02T07:34:30;10.25;;;6.88;;
36233;SDS011;43467;50.890;5.982;2023-05-02T07:36:56;12.65;;;5.63;;
36233;SDS011;43467;50.890;5.982;2023-05-02T07:39:23;14.23;;;5.40;;
36233;SDS011;43467;50.890;5.982;2023-05-02T07:41:52;9.57;;;4.95;;
36233;SDS011;43467;50.890;5.982;2023-05-02T07:44:18;18.55;;;4.70;;
36233;SDS011;43467;50.890;5.982;2023-05-02T07:46:43;7.32;;;3.80;;
36233;SDS011;43467;50.890;5.982;2023-05-02T07:49:09;9.32;;;4.10;;
36233;SDS011;43467;50.890;5.982;2023-05-02T07:51:34;12.80;;;4.30;;
36233;SDS011;43467;50.890;5.982;2023-05-02T07:54:00;6.43;;;2.80;;
36233;SDS011;43467;50.890;5.982;2023-05-02T07:56:26;6.18;;;3.58;;
36233;SDS011;43467;50.890;5.982;2023-05-02T07:58:52;8.63;;;4.20;;
36233;SDS011;43467;50.890;5.982;2023-05-02T08:01:17;7.55;;;3.33;;
36233;SDS011;43467;50.890;5.982;2023-05-02T08:03:43;6.47;;;3.35;;
36233;SDS011;43467;50.890;5.982;2023-05-02T08:06:09;6.88;;;3.15;;
36233;SDS011;43467;50.890;5.982;2023-05-02T08:08:34;12.95;;;3.40;;
36233;SDS011;43467;50.890;5.982;2023-05-02T08:11:01;6.07;;;2.95;;
36233;SDS011;43467;50.890;5.982;2023-05-02T08:13:26;7.57;;;3.63;;
36233;SDS011;43467;50.890;5.982;2023-05-02T08:15:52;6.68;;;2.88;;
36233;SDS011;43467;50.890;5.982;2023-05-02T08:18:25;10.70;;;2.70;;
36233;SDS011;43467;50.890;5.982;2023-05-02T08:20:51;8.05;;;2.92;;
36233;SDS011;43467;50.890;5.982;2023-05-02T08:23:17;6.75;;;2.88;;
36233;SDS011;43467;50.890;5.982;2023-05-02T08:25:42;8.07;;;2.80;;
36233;SDS011;43467;50.890;5.982;2023-05-02T08:28:08;4.88;;;2.55;;
36233;SDS011;43467;50.890;5.982;2023-05-02T08:30:33;8.75;;;3.15;;
36233;SDS011;43467;50.890;5.982;2023-05-02T08:32:59;7.15;;;2.80;;
36233;SDS011;43467;50.890;5.982;2023-05-02T08:35:24;9.70;;;3.03;;
36233;SDS011;43467;50.890;5.982;2023-05-02T08:37:50;7.38;;;2.90;;
36233;SDS011;43467;50.890;5.982;2023-05-02T08:40:16;7.40;;;3.08;;
36233;SDS011;43467;50.890;5.982;2023-05-02T08:42:42;10.77;;;3.97;;
36233;SDS011;43467;50.890;5.982;2023-05-02T08:45:09;6.75;;;2.83;;
36233;SDS011;43467;50.890;5.982;2023-05-02T08:47:37;7.72;;;3.10;;
36233;SDS011;43467;50.890;5.982;2023-05-02T08:50:04;4.90;;;2.40;;
36233;SDS011;43467;50.890;5.982;2023-05-02T08:52:31;6.43;;;3.20;;
36233;SDS011;43467;50.890;5.982;2023-05-02T08:54:57;7.35;;;2.80;;
36233;SDS011;43467;50.890;5.982;2023-05-02T08:57:25;4.95;;;2.85;;
36233;SDS011;43467;50.890;5.982;2023-05-02T08:59:53;7.05;;;2.60;;
36233;SDS011;43467;50.890;5.982;2023-05-02T09:04:52;7.63;;;2.40;;
36233;SDS011;43467;50.890;5.982;2023-05-02T09:07:19;8.00;;;2.80;;
36233;SDS011;43467;50.890;5.982;2023-05-02T09:09:46;5.95;;;2.72;;
36233;SDS011;43467;50.890;5.982;2023-05-02T09:12:11;7.35;;;2.78;;
36233;SDS011;43467;50.890;5.982;2023-05-02T09:14:37;4.85;;;2.70;;
36233;SDS011;43467;50.890;5.982;2023-05-02T09:17:02;3.85;;;2.53;;
36233;SDS011;43467;50.890;5.982;2023-05-02T09:19:27;7.57;;;3.30;;
36233;SDS011;43467;50.890;5.982;2023-05-02T09:21:58;9.38;;;2.85;;
36233;SDS011;43467;50.890;5.982;2023-05-02T09:24:25;5.88;;;2.70;;
36233;SDS011;43467;50.890;5.982;2023-05-02T09:27:00;8.18;;;3.20;;
36233;SDS011;43467;50.890;5.982;2023-05-02T09:29:27;5.22;;;2.78;;
36233;SDS011;43467;50.890;5.982;2023-05-02T09:31:54;8.35;;;2.90;;
36233;SDS011;43467;50.890;5.982;2023-05-02T09:34:20;8.73;;;3.05;;
36233;SDS011;43467;50.890;5.982;2023-05-02T09:36:47;9.15;;;3.70;;
36233;SDS011;43467;50.890;5.982;2023-05-02T09:39:21;6.00;;;2.28;;
36233;SDS011;43467;50.890;5.982;2023-05-02T09:41:50;4.50;;;2.60;;
36233;SDS011;43467;50.890;5.982;2023-05-02T09:44:17;8.75;;;3.33;;
36233;SDS011;43467;50.890;5.982;2023-05-02T09:46:45;6.40;;;3.10;;
36233;SDS011;43467;50.890;5.982;2023-05-02T09:49:14;5.85;;;3.00;;
36233;SDS011;43467;50.890;5.982;2023-05-02T09:51:44;5.20;;;2.47;;
36233;SDS011;43467;50.890;5.982;2023-05-02T09:54:11;12.73;;;3.30;;
36233;SDS011;43467;50.890;5.982;2023-05-02T09:56:53;9.25;;;3.30;;
36233;SDS011;43467;50.890;5.982;2023-05-02T09:59:22;7.57;;;2.85;;
36233;SDS011;43467;50.890;5.982;2023-05-02T10:01:55;4.57;;;2.60;;
36233;SDS011;43467;50.890;5.982;2023-05-02T10:04:21;9.52;;;3.92;;
36233;SDS011;43467;50.890;5.982;2023-05-02T10:06:46;10.18;;;3.13;;
36233;SDS011;43467;50.890;5.982;2023-05-02T10:09:15;8.70;;;2.83;;
36233;SDS011;43467;50.890;5.982;2023-05-02T10:11:43;11.30;;;3.60;;
36233;SDS011;43467;50.890;5.982;2023-05-02T10:14:09;8.82;;;4.22;;
36233;SDS011;43467;50.890;5.982;2023-05-02T10:16:37;8.52;;;3.63;;
36233;SDS011;43467;50.890;5.982;2023-05-02T10:19:10;11.13;;;4.13;;
36233;SDS011;43467;50.890;5.982;2023-05-02T10:21:37;13.07;;;4.68;;
36233;SDS011;43467;50.890;5.982;2023-05-02T10:24:04;8.50;;;4.00;;
36233;SDS011;43467;50.890;5.982;2023-05-02T10:26:30;11.85;;;3.85;;
36233;SDS011;43467;50.890;5.982;2023-05-02T10:28:58;8.40;;;3.78;;
36233;SDS011;43467;50.890;5.982;2023-05-02T10:31:24;11.77;;;4.40;;
36233;SDS011;43467;50.890;5.982;2023-05-02T10:33:51;10.60;;;3.83;;
36233;SDS011;43467;50.890;5.982;2023-05-02T10:36:19;7.57;;;3.53;;
36233;SDS011;43467;50.890;5.982;2023-05-02T10:38:47;8.40;;;3.75;;
36233;SDS011;43467;50.890;5.982;2023-05-02T10:41:14;10.65;;;3.30;;
36233;SDS011;43467;50.890;5.982;2023-05-02T10:43:45;7.43;;;3.30;;
36233;SDS011;43467;50.890;5.982;2023-05-02T10:51:36;9.57;;;3.25;;
36233;SDS011;43467;50.890;5.982;2023-05-02T10:57:04;11.25;;;3.47;;
36233;SDS011;43467;50.890;5.982;2023-05-02T10:59:35;13.05;;;3.50;;
36233;SDS011;43467;50.890;5.982;2023-05-02T11:02:03;8.93;;;3.00;;
36233;SDS011;43467;50.890;5.982;2023-05-02T11:07:26;7.57;;;3.15;;
36233;SDS011;43467;50.890;5.982;2023-05-02T11:09:52;10.70;;;3.13;;
36233;SDS011;43467;50.890;5.982;2023-05-02T11:18:04;9.70;;;4.05;;
36233;SDS011;43467;50.890;5.982;2023-05-02T11:20:31;11.77;;;3.60;;
36233;SDS011;43467;50.890;5.982;2023-05-02T11:25:53;10.70;;;3.75;;
36233;SDS011;43467;50.890;5.982;2023-05-02T11:31:01;10.55;;;4.32;;
36233;SDS011;43467;50.890;5.982;2023-05-02T11:33:31;11.38;;;4.32;;
36233;SDS011;43467;50.890;5.982;2023-05-02T11:35:56;8.02;;;3.60;;
36233;SDS011;43467;50.890;5.982;2023-05-02T11:38:23;7.35;;;3.75;;
36233;SDS011;43467;50.890;5.982;2023-05-02T11:40:56;12.82;;;4.68;;
36233;SDS011;43467;50.890;5.982;2023-05-02T11:43:24;11.52;;;4.38;;
36233;SDS011;43467;50.890;5.982;2023-05-02T11:45:52;8.73;;;3.53;;
36233;SDS011;43467;50.890;5.982;2023-05-02T11:48:19;11.73;;;4.18;;
36233;SDS011;43467;50.890;5.982;2023-05-02T11:50:47;9.90;;;3.78;;
36233;SDS011;43467;50.890;5.982;2023-05-02T11:53:18;6.70;;;3.47;;
36233;SDS011;43467;50.890;5.982;2023-05-02T11:55:48;12.98;;;4.18;;
36233;SDS011;43467;50.890;5.982;2023-05-02T11:58:16;7.00;;;3.60;;
36233;SDS011;43467;50.890;5.982;2023-05-02T12:00:43;12.05;;;4.38;;
36233;SDS011;43467;50.890;5.982;2023-05-02T12:05:46;12.23;;;4.60;;
36233;SDS011;43467;50.890;5.982;2023-05-02T12:08:27;17.27;;;6.47;;
36233;SDS011;43467;50.890;5.982;2023-05-02T12:10:54;12.23;;;5.10;;
36233;SDS011;43467;50.890;5.982;2023-05-02T12:13:21;12.30;;;5.25;;
36233;SDS011;43467;50.890;5.982;2023-05-02T12:15:48;10.98;;;5.07;;
36233;SDS011;43467;50.890;5.982;2023-05-02T12:18:14;13.70;;;4.97;;
36233;SDS011;43467;50.890;5.982;2023-05-02T12:20:42;10.35;;;4.72;;
36233;SDS011;43467;50.890;5.982;2023-05-02T12:23:07;10.65;;;5.03;;
36233;SDS011;43467;50.890;5.982;2023-05-02T12:25:37;12.10;;;4.57;;
36233;SDS011;43467;50.890;5.982;2023-05-02T12:28:06;9.52;;;4.65;;
36233;SDS011;43467;50.890;5.982;2023-05-02T12:30:32;10.43;;;4.55;;
36233;SDS011;43467;50.890;5.982;2023-05-02T12:32:59;13.98;;;4.90;;
36233;SDS011;43467;50.890;5.982;2023-05-02T12:35:26;12.23;;;4.65;;
36233;SDS011;43467;50.890;5.982;2023-05-02T12:37:52;11.50;;;4.95;;
36233;SDS011;43467;50.890;5.982;2023-05-02T12:40:20;8.93;;;4.53;;
36233;SDS011;43467;50.890;5.982;2023-05-02T12:42:58;11.02;;;4.55;;
36233;SDS011;43467;50.890;5.982;2023-05-02T12:45:27;14.70;;;4.80;;
36233;SDS011;43467;50.890;5.982;2023-05-02T12:47:57;13.60;;;5.00;;
36233;SDS011;43467;50.890;5.982;2023-05-02T12:50:34;10.10;;;4.90;;
36233;SDS011;43467;50.890;5.982;2023-05-02T12:53:00;11.13;;;4.18;;
36233;SDS011;43467;50.890;5.982;2023-05-02T12:55:27;10.60;;;4.07;;
36233;SDS011;43467;50.890;5.982;2023-05-02T12:58:00;10.82;;;4.00;;
36233;SDS011;43467;50.890;5.982;2023-05-02T13:00:30;10.88;;;4.28;;
36233;SDS011;43467;50.890;5.982;2023-05-02T13:02:56;18.58;;;6.32;;
36233;SDS011;43467;50.890;5.982;2023-05-02T13:05:22;11.68;;;4.43;;
36233;SDS011;43467;50.890;5.982;2023-05-02T13:07:48;8.73;;;4.40;;
36233;SDS011;43467;50.890;5.982;2023-05-02T13:10:13;11.27;;;4.68;;
36233;SDS011;43467;50.890;5.982;2023-05-02T13:12:41;10.32;;;4.53;;
36233;SDS011;43467;50.890;5.982;2023-05-02T13:15:07;13.70;;;4.90;;
36233;SDS011;43467;50.890;5.982;2023-05-02T13:17:34;7.53;;;4.32;;
36233;SDS011;43467;50.890;5.982;2023-05-02T13:19:59;13.73;;;4.80;;
36233;SDS011;43467;50.890;5.982;2023-05-02T13:22:25;9.60;;;4.80;;
36233;SDS011;43467;50.890;5.982;2023-05-02T13:24:51;7.13;;;4.10;;
36233;SDS011;43467;50.890;5.982;2023-05-02T13:27:17;11.15;;;4.82;;
36233;SDS011;43467;50.890;5.982;2023-05-02T13:29:46;8.13;;;4.10;;
36233;SDS011;43467;50.890;5.982;2023-05-02T13:32:13;8.48;;;4.05;;
36233;SDS011;43467;50.890;5.982;2023-05-02T13:34:38;12.20;;;4.50;;
36233;SDS011;43467;50.890;5.982;2023-05-02T13:37:04;12.18;;;4.93;;
36233;SDS011;43467;50.890;5.982;2023-05-02T13:39:29;8.13;;;3.92;;
36233;SDS011;43467;50.890;5.982;2023-05-02T13:41:54;7.60;;;4.05;;
36233;SDS011;43467;50.890;5.982;2023-05-02T13:44:20;11.82;;;4.50;;
36233;SDS011;43467;50.890;5.982;2023-05-02T13:46:45;11.10;;;5.22;;
36233;SDS011;43467;50.890;5.982;2023-05-02T13:49:11;9.85;;;4.22;;
36233;SDS011;43467;50.890;5.982;2023-05-02T13:51:37;11.13;;;3.92;;
36233;SDS011;43467;50.890;5.982;2023-05-02T13:54:02;9.40;;;3.53;;
36233;SDS011;43467;50.890;5.982;2023-05-02T13:56:27;9.35;;;4.05;;
36233;SDS011;43467;50.890;5.982;2023-05-02T13:58:53;7.53;;;3.88;;
36233;SDS011;43467;50.890;5.982;2023-05-02T14:01:18;7.28;;;3.50;;
36233;SDS011;43467;50.890;5.982;2023-05-02T14:03:44;10.50;;;4.28;;
36233;SDS011;43467;50.890;5.982;2023-05-02T14:06:09;13.65;;;4.55;;
36233;SDS011;43467;50.890;5.982;2023-05-02T14:08:35;10.75;;;4.28;;
36233;SDS011;43467;50.890;5.982;2023-05-02T14:11:00;8.32;;;4.65;;
36233;SDS011;43467;50.890;5.982;2023-05-02T14:13:26;9.32;;;5.60;;
36233;SDS011;43467;50.890;5.982;2023-05-02T14:15:54;11.00;;;3.90;;
36233;SDS011;43467;50.890;5.982;2023-05-02T14:18:19;10.07;;;6.00;;
36233;SDS011;43467;50.890;5.982;2023-05-02T14:20:45;8.32;;;4.45;;
36233;SDS011;43467;50.890;5.982;2023-05-02T14:23:10;15.80;;;5.00;;
36233;SDS011;43467;50.890;5.982;2023-05-02T14:25:36;8.73;;;4.28;;
36233;SDS011;43467;50.890;5.982;2023-05-02T14:28:02;9.93;;;4.53;;
36233;SDS011;43467;50.890;5.982;2023-05-02T14:30:28;10.93;;;4.10;;
36233;SDS011;43467;50.890;5.982;2023-05-02T14:32:54;9.93;;;4.18;;
36233;SDS011;43467;50.890;5.982;2023-05-02T14:35:20;7.70;;;4.25;;
36233;SDS011;43467;50.890;5.982;2023-05-02T14:37:45;12.43;;;4.38;;
36233;SDS011;43467;50.890;5.982;2023-05-02T14:40:11;8.85;;;4.00;;
36233;SDS011;43467;50.890;5.982;2023-05-02T14:42:38;13.60;;;4.78;;
36233;SDS011;43467;50.890;5.982;2023-05-02T14:45:04;10.07;;;4.22;;
36233;SDS011;43467;50.890;5.982;2023-05-02T14:47:29;10.35;;;4.18;;
36233;SDS011;43467;50.890;5.982;2023-05-02T14:49:55;10.40;;;4.57;;
36233;SDS011;43467;50.890;5.982;2023-05-02T14:52:21;9.70;;;4.82;;
36233;SDS011;43467;50.890;5.982;2023-05-02T14:54:46;9.45;;;3.90;;
36233;SDS011;43467;50.890;5.982;2023-05-02T14:57:12;6.60;;;4.13;;
36233;SDS011;43467;50.890;5.982;2023-05-02T14:59:38;12.40;;;5.07;;
36233;SDS011;43467;50.890;5.982;2023-05-02T15:02:04;10.68;;;4.72;;
36233;SDS011;43467;50.890;5.982;2023-05-02T15:04:30;7.43;;;4.68;;
36233;SDS011;43467;50.890;5.982;2023-05-02T15:06:55;11.43;;;4.65;;
36233;SDS011;43467;50.890;5.982;2023-05-02T15:09:22;11.80;;;5.22;;